sensor_id;sensor_type;location;lat;lon;timestamp;pressure;altitude;pressure_sealevel;temperature;humidity
49947;BME280;35839;48.662;13.300;2024-01-30T00:00:21;98959.84;;;-1.85;100.00
49947;BME280;35839;48.662;13.300;2024-01-30T00:02:46;98960.44;;;-1.72;100.00
49947;BME280;35839;48.662;13.300;2024-01-30T00:05:12;98951.06;;;-1.75;100.00
49947;BME280;35839;48.662;13.300;2024-01-30T00:07:37;98959.94;;;-1.88;100.00
49947;BME280;35839;48.662;13.300;2024-01-30T00:10:02;98950.56;;;-1.91;100.00
49947;BME280;35839;48.662;13.300;2024-01-30T00:12:28;98961.47;;;-1.81;100.00
49947;BME280;35839;48.662;13.300;2024-01-30T00:14:53;98956.34;;;-1.81;100.00
49947;BME280;35839;48.662;13.300;2024-01-30T00:17:19;98958.81;;;-1.76;100.00
49947;BME280;35839;48.662;13.300;2024-01-30T00:19:46;98959.03;;;-1.87;100.00
49947;BME280;35839;48.662;13.300;2024-01-30T00:22:11;98956.22;;;-2.15;100.00
49947;BME280;35839;48.662;13.300;2024-01-30T00:24:37;98957.94;;;-2.14;100.00
49947;BME280;35839;48.662;13.300;2024-01-30T00:27:02;98949.16;;;-2.04;100.00
49947;BME280;35839;48.662;13.300;2024-01-30T00:29:28;98949.84;;;-1.96;100.00
49947;BME280;35839;48.662;13.300;2024-01-30T00:31:56;98957.97;;;-1.77;100.00
49947;BME280;35839;48.662;13.300;2024-01-30T00:34:21;98954.00;;;-1.92;100.00
49947;BME280;35839;48.662;13.300;2024-01-30T00:36:47;98957.91;;;-1.75;100.00
49947;BME280;35839;48.662;13.300;2024-01-30T00:39:15;98951.28;;;-2.24;100.00
49947;BME280;35839;48.662;13.300;2024-01-30T00:41:41;98953.81;;;-2.23;100.00
49947;BME280;35839;48.662;13.300;2024-01-30T00:44:06;98949.16;;;-2.05;100.00
49947;BME280;35839;48.662;13.300;2024-01-30T00:46:31;98951.56;;;-2.38;100.00
49947;BME280;35839;48.662;13.300;2024-01-30T00:48:57;98947.25;;;-2.36;100.00
49947;BME280;35839;48.662;13.300;2024-01-30T00:51:22;98947.72;;;-2.17;100.00
49947;BME280;35839;48.662;13.300;2024-01-30T00:53:47;98950.06;;;-2.06;100.00
49947;BME280;35839;48.662;13.300;2024-01-30T00:56:13;98952.84;;;-2.17;100.00
49947;BME280;35839;48.662;13.300;2024-01-30T00:58:38;98956.59;;;-2.32;100.00
49947;BME280;35839;48.662;13.300;2024-01-30T01:01:04;98947.41;;;-2.42;100.00
49947;BME280;35839;48.662;13.300;2024-01-30T01:03:29;98944.56;;;-2.30;100.00
49947;BME280;35839;48.662;13.300;2024-01-30T01:05:55;98943.06;;;-2.40;100.00
49947;BME280;35839;48.662;13.300;2024-01-30T01:08:20;98944.75;;;-2.39;100.00
49947;BME280;35839;48.662;13.300;2024-01-30T01:10:45;98942.25;;;-2.42;100.00
49947;BME280;35839;48.662;13.300;2024-01-30T01:13:11;98944.56;;;-2.28;100.00
49947;BME280;35839;48.662;13.300;2024-01-30T01:15:36;98950.19;;;-2.13;100.00
49947;BME280;35839;48.662;13.300;2024-01-30T01:18:02;98945.22;;;-2.22;100.00
49947;BME280;35839;48.662;13.300;2024-01-30T01:20:28;98950.38;;;-2.22;100.00
49947;BME280;35839;48.662;13.300;2024-01-30T01:22:53;98947.06;;;-2.27;100.00
49947;BME280;35839;48.662;13.300;2024-01-30T01:25:19;98945.41;;;-2.29;100.00
49947;BME280;35839;48.662;13.300;2024-01-30T01:27:44;98935.78;;;-2.20;100.00
49947;BME280;35839;48.662;13.300;2024-01-30T01:30:16;98950.63;;;-2.34;100.00
49947;BME280;35839;48.662;13.300;2024-01-30T01:32:49;98944.72;;;-2.38;100.00
49947;BME280;35839;48.662;13.300;2024-01-30T01:35:26;98953.63;;;-2.14;100.00
49947;BME280;35839;48.662;13.300;2024-01-30T01:37:53;98940.25;;;-2.28;100.00
49947;BME280;35839;48.662;13.300;2024-01-30T01:40:24;98946.97;;;-2.22;100.00
49947;BME280;35839;48.662;13.300;2024-01-30T01:42:53;98941.53;;;-2.49;100.00
49947;BME280;35839;48.662;13.300;2024-01-30T01:45:19;98946.97;;;-2.66;100.00
49947;BME280;35839;48.662;13.300;2024-01-30T01:47:47;98946.22;;;-2.69;100.00
49947;BME280;35839;48.662;13.300;2024-01-30T01:50:13;98950.81;;;-2.43;100.00
49947;BME280;35839;48.662;13.300;2024-01-30T01:52:40;98937.03;;;-2.38;100.00
49947;BME280;35839;48.662;13.300;2024-01-30T01:55:06;98942.66;;;-2.64;100.00
49947;BME280;35839;48.662;13.300;2024-01-30T01:57:33;98943.53;;;-2.63;100.00
49947;BME280;35839;48.662;13.300;2024-01-30T02:00:00;98949.94;;;-2.87;100.00
49947;BME280;35839;48.662;13.300;2024-01-30T02:02:26;98921.28;;;-3.08;100.00
49947;BME280;35839;48.662;13.300;2024-01-30T02:04:53;98938.03;;;-2.88;100.00
49947;BME280;35839;48.662;13.300;2024-01-30T02:07:24;98939.19;;;-2.60;100.00
49947;BME280;35839;48.662;13.300;2024-01-30T02:09:49;98934.13;;;-2.63;100.00
49947;BME280;35839;48.662;13.300;2024-01-30T02:12:14;98931.84;;;-2.36;100.00
49947;BME280;35839;48.662;13.300;2024-01-30T02:14:47;98932.66;;;-2.34;100.00
49947;BME280;35839;48.662;13.300;2024-01-30T02:17:13;98935.22;;;-2.76;100.00
49947;BME280;35839;48.662;13.300;2024-01-30T02:19:39;98932.00;;;-2.87;100.00
49947;BME280;35839;48.662;13.300;2024-01-30T02:22:04;98929.16;;;-2.72;100.00
49947;BME280;35839;48.662;13.300;2024-01-30T02:24:30;98927.97;;;-2.54;100.00
49947;BME280;35839;48.662;13.300;2024-01-30T02:26:55;98932.88;;;-2.45;100.00
49947;BME280;35839;48.662;13.300;2024-01-30T02:29:21;98928.81;;;-2.53;100.00
49947;BME280;35839;48.662;13.300;2024-01-30T02:31:46;98928.09;;;-2.60;100.00
49947;BME280;35839;48.662;13.300;2024-01-30T02:34:12;98927.44;;;-2.71;100.00
49947;BME280;35839;48.662;13.300;2024-01-30T02:36:37;98930.34;;;-2.88;100.00
49947;BME280;35839;48.662;13.300;2024-01-30T02:39:04;98914.88;;;-2.84;100.00
49947;BME280;35839;48.662;13.300;2024-01-30T02:41:29;98923.31;;;-2.79;100.00
49947;BME280;35839;48.662;13.300;2024-01-30T02:43:54;98923.22;;;-2.74;100.00
49947;BME280;35839;48.662;13.300;2024-01-30T02:46:20;98924.78;;;-2.65;100.00
49947;BME280;35839;48.662;13.300;2024-01-30T02:48:45;98914.97;;;-2.46;100.00
49947;BME280;35839;48.662;13.300;2024-01-30T02:51:11;98925.06;;;-2.81;100.00
49947;BME280;35839;48.662;13.300;2024-01-30T02:53:36;98922.19;;;-3.10;100.00
49947;BME280;35839;48.662;13.300;2024-01-30T02:56:03;98933.81;;;-2.92;100.00
49947;BME280;35839;48.662;13.300;2024-01-30T02:58:28;98921.09;;;-2.99;100.00
49947;BME280;35839;48.662;13.300;2024-01-30T03:00:53;98931.19;;;-2.89;100.00
49947;BME280;35839;48.662;13.300;2024-01-30T03:03:19;98928.53;;;-2.85;100.00
49947;BME280;35839;48.662;13.300;2024-01-30T03:05:44;98934.88;;;-3.03;100.00
49947;BME280;35839;48.662;13.300;2024-01-30T03:08:09;98934.97;;;-3.09;100.00
49947;BME280;35839;48.662;13.300;2024-01-30T03:10:35;98921.66;;;-2.83;100.00
49947;BME280;35839;48.662;13.300;2024-01-30T03:13:00;98926.75;;;-2.80;100.00
49947;BME280;35839;48.662;13.300;2024-01-30T03:15:26;98928.16;;;-3.10;100.00
49947;BME280;35839;48.662;13.300;2024-01-30T03:17:52;98929.78;;;-3.06;100.00
49947;BME280;35839;48.662;13.300;2024-01-30T03:20:18;98927.59;;;-3.27;100.00
49947;BME280;35839;48.662;13.300;2024-01-30T03:22:43;98927.19;;;-3.04;100.00
49947;BME280;35839;48.662;13.300;2024-01-30T03:25:08;98923.25;;;-3.22;100.00
49947;BME280;35839;48.662;13.300;2024-01-30T03:27:34;98923.16;;;-3.16;100.00
49947;BME280;35839;48.662;13.300;2024-01-30T03:29:59;98925.97;;;-3.31;100.00
49947;BME280;35839;48.662;13.300;2024-01-30T03:32:24;98919.38;;;-3.46;100.00
49947;BME280;35839;48.662;13.300;2024-01-30T03:34:50;98917.50;;;-3.35;100.00
49947;BME280;35839;48.662;13.300;2024-01-30T03:37:15;98932.97;;;-3.41;100.00
49947;BME280;35839;48.662;13.300;2024-01-30T03:39:40;98932.13;;;-3.43;100.00
49947;BME280;35839;48.662;13.300;2024-01-30T03:42:06;98926.78;;;-3.29;100.00
49947;BME280;35839;48.662;13.300;2024-01-30T03:44:31;98923.22;;;-3.21;100.00
49947;BME280;35839;48.662;13.300;2024-01-30T03:46:56;98924.06;;;-3.20;100.00
49947;BME280;35839;48.662;13.300;2024-01-30T03:49:22;98913.63;;;-3.09;100.00
49947;BME280;35839;48.662;13.300;2024-01-30T03:51:47;98918.94;;;-2.73;100.00
49947;BME280;35839;48.662;13.300;2024-01-30T03:54:13;98921.66;;;-2.83;100.00
49947;BME280;35839;48.662;13.300;2024-01-30T03:56:38;98928.03;;;-3.04;100.00
49947;BME280;35839;48.662;13.300;2024-01-30T03:59:03;98928.59;;;-3.34;100.00
49947;BME280;35839;48.662;13.300;2024-01-30T04:01:29;98924.44;;;-3.42;100.00
49947;BME280;35839;48.662;13.300;2024-01-30T04:03:54;98931.91;;;-3.29;100.00
49947;BME280;35839;48.662;13.300;2024-01-30T04:06:20;98925.84;;;-3.24;100.00
49947;BME280;35839;48.662;13.300;2024-01-30T04:08:45;98917.34;;;-3.26;100.00
49947;BME280;35839;48.662;13.300;2024-01-30T04:11:10;98926.19;;;-3.45;100.00
49947;BME280;35839;48.662;13.300;2024-01-30T04:13:36;98919.94;;;-3.29;100.00
49947;BME280;35839;48.662;13.300;2024-01-30T04:16:02;98927.44;;;-3.18;100.00
49947;BME280;35839;48.662;13.300;2024-01-30T04:18:28;98927.69;;;-3.33;100.00
49947;BME280;35839;48.662;13.300;2024-01-30T04:20:53;98928.84;;;-3.02;100.00
49947;BME280;35839;48.662;13.300;2024-01-30T04:23:19;98923.75;;;-3.53;100.00
49947;BME280;35839;48.662;13.300;2024-01-30T04:25:44;98934.97;;;-3.60;100.00
49947;BME280;35839;48.662;13.300;2024-01-30T04:28:10;98933.91;;;-3.47;100.00
49947;BME280;35839;48.662;13.300;2024-01-30T04:30:37;98938.81;;;-3.34;100.00
49947;BME280;35839;48.662;13.300;2024-01-30T04:33:03;98940.72;;;-3.46;100.00
49947;BME280;35839;48.662;13.300;2024-01-30T04:35:28;98937.16;;;-3.35;100.00
49947;BME280;35839;48.662;13.300;2024-01-30T04:37:54;98938.06;;;-3.41;100.00
49947;BME280;35839;48.662;13.300;2024-01-30T04:40:20;98940.84;;;-3.52;100.00
49947;BME280;35839;48.662;13.300;2024-01-30T04:42:46;98934.59;;;-3.37;100.00
49947;BME280;35839;48.662;13.300;2024-01-30T04:45:12;98944.09;;;-3.44;100.00
49947;BME280;35839;48.662;13.300;2024-01-30T04:47:37;98927.22;;;-3.57;100.00
49947;BME280;35839;48.662;13.300;2024-01-30T04:50:05;98935.56;;;-3.43;100.00
49947;BME280;35839;48.662;13.300;2024-01-30T04:52:31;98948.84;;;-3.22;100.00
49947;BME280;35839;48.662;13.300;2024-01-30T04:54:56;98939.50;;;-3.25;100.00
49947;BME280;35839;48.662;13.300;2024-01-30T04:57:21;98934.78;;;-3.48;100.00
49947;BME280;35839;48.662;13.300;2024-01-30T04:59:47;98940.47;;;-3.30;100.00
49947;BME280;35839;48.662;13.300;2024-01-30T05:02:12;98946.19;;;-3.14;100.00
49947;BME280;35839;48.662;13.300;2024-01-30T05:04:38;98935.94;;;-3.16;100.00
49947;BME280;35839;48.662;13.300;2024-01-30T05:07:03;98941.94;;;-3.17;100.00
49947;BME280;35839;48.662;13.300;2024-01-30T05:09:28;98945.31;;;-3.15;100.00
49947;BME280;35839;48.662;13.300;2024-01-30T05:11:54;98948.59;;;-3.07;100.00
49947;BME280;35839;48.662;13.300;2024-01-30T05:14:19;98944.72;;;-3.29;100.00
49947;BME280;35839;48.662;13.300;2024-01-30T05:16:45;98952.41;;;-3.29;100.00
49947;BME280;35839;48.662;13.300;2024-01-30T05:19:15;98958.03;;;-3.09;100.00
49947;BME280;35839;48.662;13.300;2024-01-30T05:21:41;98949.28;;;-3.47;100.00
49947;BME280;35839;48.662;13.300;2024-01-30T05:24:07;98950.97;;;-3.46;100.00
49947;BME280;35839;48.662;13.300;2024-01-30T05:26:35;98952.69;;;-3.48;100.00
49947;BME280;35839;48.662;13.300;2024-01-30T05:29:00;98961.81;;;-3.31;100.00
49947;BME280;35839;48.662;13.300;2024-01-30T05:31:25;98953.97;;;-3.22;100.00
49947;BME280;35839;48.662;13.300;2024-01-30T05:33:52;98952.44;;;-3.31;100.00
49947;BME280;35839;48.662;13.300;2024-01-30T05:36:17;98944.09;;;-3.42;100.00
49947;BME280;35839;48.662;13.300;2024-01-30T05:38:42;98956.69;;;-3.30;100.00
49947;BME280;35839;48.662;13.300;2024-01-30T05:41:08;98955.25;;;-3.48;100.00
49947;BME280;35839;48.662;13.300;2024-01-30T05:43:34;98958.09;;;-3.65;100.00
49947;BME280;35839;48.662;13.300;2024-01-30T05:46:00;98956.34;;;-3.61;100.00
49947;BME280;35839;48.662;13.300;2024-01-30T05:48:25;98950.75;;;-3.33;100.00
49947;BME280;35839;48.662;13.300;2024-01-30T05:50:51;98965.50;;;-3.46;100.00
49947;BME280;35839;48.662;13.300;2024-01-30T05:53:16;98968.13;;;-3.52;100.00
49947;BME280;35839;48.662;13.300;2024-01-30T05:55:42;98968.94;;;-3.47;100.00
49947;BME280;35839;48.662;13.300;2024-01-30T05:58:07;98964.78;;;-3.56;100.00
49947;BME280;35839;48.662;13.300;2024-01-30T06:00:32;98973.25;;;-3.51;100.00
49947;BME280;35839;48.662;13.300;2024-01-30T06:02:58;98941.13;;;-3.70;100.00
49947;BME280;35839;48.662;13.300;2024-01-30T06:05:25;98961.25;;;-3.49;100.00
49947;BME280;35839;48.662;13.300;2024-01-30T06:07:51;98969.78;;;-3.48;100.00
49947;BME280;35839;48.662;13.300;2024-01-30T06:10:16;98970.66;;;-3.49;100.00
49947;BME280;35839;48.662;13.300;2024-01-30T06:12:41;98968.19;;;-3.57;100.00
49947;BME280;35839;48.662;13.300;2024-01-30T06:15:07;98980.09;;;-3.53;100.00
49947;BME280;35839;48.662;13.300;2024-01-30T06:17:33;98981.06;;;-3.60;100.00
49947;BME280;35839;48.662;13.300;2024-01-30T06:19:58;98978.44;;;-3.55;100.00
49947;BME280;35839;48.662;13.300;2024-01-30T06:22:23;98977.63;;;-3.59;100.00
49947;BME280;35839;48.662;13.300;2024-01-30T06:24:49;98969.31;;;-3.73;100.00
49947;BME280;35839;48.662;13.300;2024-01-30T06:27:14;98980.41;;;-3.74;100.00
49947;BME280;35839;48.662;13.300;2024-01-30T06:29:40;98974.50;;;-3.78;100.00
49947;BME280;35839;48.662;13.300;2024-01-30T06:32:07;98982.28;;;-3.86;100.00
49947;BME280;35839;48.662;13.300;2024-01-30T06:34:33;98978.84;;;-3.85;100.00
49947;BME280;35839;48.662;13.300;2024-01-30T06:36:58;98984.78;;;-3.83;100.00
49947;BME280;35839;48.662;13.300;2024-01-30T06:39:24;98972.03;;;-3.86;100.00
49947;BME280;35839;48.662;13.300;2024-01-30T06:41:50;98968.59;;;-3.85;100.00
49947;BME280;35839;48.662;13.300;2024-01-30T06:44:15;98972.81;;;-3.79;100.00
49947;BME280;35839;48.662;13.300;2024-01-30T06:46:41;98975.63;;;-3.99;100.00
49947;BME280;35839;48.662;13.300;2024-01-30T06:49:06;98976.81;;;-3.61;100.00
49947;BME280;35839;48.662;13.300;2024-01-30T06:51:31;98983.47;;;-3.51;100.00
49947;BME280;35839;48.662;13.300;2024-01-30T06:53:57;98988.72;;;-3.06;100.00
49947;BME280;35839;48.662;13.300;2024-01-30T06:56:22;98984.44;;;-3.56;100.00
49947;BME280;35839;48.662;13.300;2024-01-30T06:58:48;98988.69;;;-3.57;100.00
49947;BME280;35839;48.662;13.300;2024-01-30T07:01:14;98983.34;;;-3.42;100.00
49947;BME280;35839;48.662;13.300;2024-01-30T07:03:39;98992.25;;;-3.67;100.00
49947;BME280;35839;48.662;13.300;2024-01-30T07:06:05;98988.59;;;-3.49;100.00
49947;BME280;35839;48.662;13.300;2024-01-30T07:08:30;98987.41;;;-3.30;100.00
49947;BME280;35839;48.662;13.300;2024-01-30T07:10:55;98996.09;;;-3.39;100.00
49947;BME280;35839;48.662;13.300;2024-01-30T07:13:21;98995.66;;;-3.65;100.00
49947;BME280;35839;48.662;13.300;2024-01-30T07:15:46;98998.41;;;-3.23;100.00
49947;BME280;35839;48.662;13.300;2024-01-30T07:18:12;99000.69;;;-3.05;100.00
49947;BME280;35839;48.662;13.300;2024-01-30T07:20:39;98999.94;;;-3.13;100.00
49947;BME280;35839;48.662;13.300;2024-01-30T07:23:10;99001.97;;;-3.33;100.00
49947;BME280;35839;48.662;13.300;2024-01-30T07:25:39;99007.41;;;-3.52;100.00
49947;BME280;35839;48.662;13.300;2024-01-30T07:28:09;99012.34;;;-3.40;100.00
49947;BME280;35839;48.662;13.300;2024-01-30T07:30:36;99001.34;;;-3.46;100.00
49947;BME280;35839;48.662;13.300;2024-01-30T07:33:01;98999.19;;;-3.20;100.00
49947;BME280;35839;48.662;13.300;2024-01-30T07:35:27;99000.38;;;-2.88;100.00
49947;BME280;35839;48.662;13.300;2024-01-30T07:37:52;99004.50;;;-2.79;100.00
49947;BME280;35839;48.662;13.300;2024-01-30T07:40:17;99001.78;;;-2.70;100.00
49947;BME280;35839;48.662;13.300;2024-01-30T07:42:43;99007.50;;;-2.56;100.00
49947;BME280;35839;48.662;13.300;2024-01-30T07:45:08;99015.94;;;-2.50;100.00
49947;BME280;35839;48.662;13.300;2024-01-30T07:47:34;99021.25;;;-2.60;100.00
49947;BME280;35839;48.662;13.300;2024-01-30T07:49:59;99016.31;;;-2.25;100.00
49947;BME280;35839;48.662;13.300;2024-01-30T07:52:25;99021.63;;;-2.35;100.00
49947;BME280;35839;48.662;13.300;2024-01-30T07:54:51;99022.53;;;-2.37;100.00
49947;BME280;35839;48.662;13.300;2024-01-30T07:57:16;99020.63;;;-2.26;100.00
49947;BME280;35839;48.662;13.300;2024-01-30T07:59:43;99025.25;;;-2.03;100.00
49947;BME280;35839;48.662;13.300;2024-01-30T08:02:12;99021.09;;;-2.08;100.00
49947;BME280;35839;48.662;13.300;2024-01-30T08:04:37;99019.19;;;-1.99;100.00
49947;BME280;35839;48.662;13.300;2024-01-30T08:07:03;99012.84;;;-1.81;100.00
49947;BME280;35839;48.662;13.300;2024-01-30T08:09:28;99014.09;;;-1.61;100.00
49947;BME280;35839;48.662;13.300;2024-01-30T08:11:54;99011.38;;;-1.54;100.00
49947;BME280;35839;48.662;13.300;2024-01-30T08:14:19;99024.06;;;-1.46;100.00
49947;BME280;35839;48.662;13.300;2024-01-30T08:16:45;99016.66;;;-1.22;100.00
49947;BME280;35839;48.662;13.300;2024-01-30T08:19:10;99014.75;;;-1.14;100.00
49947;BME280;35839;48.662;13.300;2024-01-30T08:21:35;99012.41;;;-1.25;100.00
49947;BME280;35839;48.662;13.300;2024-01-30T08:24:05;99017.19;;;-1.47;100.00
49947;BME280;35839;48.662;13.300;2024-01-30T08:26:31;99014.50;;;-1.05;100.00
49947;BME280;35839;48.662;13.300;2024-01-30T08:28:57;99018.53;;;-0.93;100.00
49947;BME280;35839;48.662;13.300;2024-01-30T08:31:22;99019.28;;;-0.91;100.00
49947;BME280;35839;48.662;13.300;2024-01-30T08:33:48;99018.84;;;-0.73;100.00
49947;BME280;35839;48.662;13.300;2024-01-30T08:36:13;99017.72;;;-0.62;100.00
49947;BME280;35839;48.662;13.300;2024-01-30T08:38:39;99021.63;;;-0.49;100.00
49947;BME280;35839;48.662;13.300;2024-01-30T08:41:04;99018.59;;;-0.01;100.00
49947;BME280;35839;48.662;13.300;2024-01-30T08:43:30;99013.09;;;0.11;100.00
49947;BME280;35839;48.662;13.300;2024-01-30T08:45:55;99016.97;;;-0.04;100.00
49947;BME280;35839;48.662;13.300;2024-01-30T08:48:22;99014.94;;;0.08;100.00
49947;BME280;35839;48.662;13.300;2024-01-30T08:50:47;99006.22;;;0.12;100.00
49947;BME280;35839;48.662;13.300;2024-01-30T08:53:13;99012.63;;;0.28;100.00
49947;BME280;35839;48.662;13.300;2024-01-30T08:55:38;99007.72;;;0.19;100.00
49947;BME280;35839;48.662;13.300;2024-01-30T08:58:04;99017.34;;;0.42;100.00
49947;BME280;35839;48.662;13.300;2024-01-30T09:00:30;99012.81;;;0.49;100.00
49947;BME280;35839;48.662;13.300;2024-01-30T09:02:55;99019.00;;;0.45;100.00
49947;BME280;35839;48.662;13.300;2024-01-30T09:05:20;99018.50;;;0.60;100.00
49947;BME280;35839;48.662;13.300;2024-01-30T09:07:46;99013.03;;;0.71;100.00
49947;BME280;35839;48.662;13.300;2024-01-30T09:10:11;99021.84;;;0.90;100.00
49947;BME280;35839;48.662;13.300;2024-01-30T09:12:37;99024.81;;;0.78;100.00
49947;BME280;35839;48.662;13.300;2024-01-30T09:15:03;99021.72;;;0.93;100.00
49947;BME280;35839;48.662;13.300;2024-01-30T09:17:28;99023.47;;;0.93;100.00
49947;BME280;35839;48.662;13.300;2024-01-30T09:19:55;99023.63;;;0.88;100.00
49947;BME280;35839;48.662;13.300;2024-01-30T09:22:20;99024.34;;;1.18;100.00
49947;BME280;35839;48.662;13.300;2024-01-30T09:24:45;99017.78;;;1.10;100.00
49947;BME280;35839;48.662;13.300;2024-01-30T09:27:11;99019.38;;;1.39;100.00
49947;BME280;35839;48.662;13.300;2024-01-30T09:29:36;99010.78;;;1.13;100.00
49947;BME280;35839;48.662;13.300;2024-01-30T09:32:01;99014.63;;;1.26;100.00
49947;BME280;35839;48.662;13.300;2024-01-30T09:34:27;99016.16;;;1.32;100.00
49947;BME280;35839;48.662;13.300;2024-01-30T09:36:52;99018.09;;;1.76;100.00
49947;BME280;35839;48.662;13.300;2024-01-30T09:39:17;99025.72;;;2.02;100.00
49947;BME280;35839;48.662;13.300;2024-01-30T09:41:48;99023.06;;;1.82;100.00
49947;BME280;35839;48.662;13.300;2024-01-30T09:44:16;99022.00;;;1.86;100.00
49947;BME280;35839;48.662;13.300;2024-01-30T09:46:42;99026.63;;;1.78;100.00
49947;BME280;35839;48.662;13.300;2024-01-30T09:49:09;99019.03;;;2.20;100.00
49947;BME280;35839;48.662;13.300;2024-01-30T09:51:35;99013.75;;;2.23;100.00
49947;BME280;35839;48.662;13.300;2024-01-30T09:54:02;99024.22;;;2.42;100.00
49947;BME280;35839;48.662;13.300;2024-01-30T09:56:28;99020.28;;;2.56;100.00
49947;BME280;35839;48.662;13.300;2024-01-30T09:58:54;99013.78;;;2.45;100.00
49947;BME280;35839;48.662;13.300;2024-01-30T10:01:19;99022.91;;;2.54;100.00
49947;BME280;35839;48.662;13.300;2024-01-30T10:03:45;99018.28;;;2.62;100.00
49947;BME280;35839;48.662;13.300;2024-01-30T10:06:11;99014.25;;;2.55;100.00
49947;BME280;35839;48.662;13.300;2024-01-30T10:08:37;99012.56;;;2.32;100.00
49947;BME280;35839;48.662;13.300;2024-01-30T10:11:03;99007.53;;;2.73;100.00
49947;BME280;35839;48.662;13.300;2024-01-30T10:13:28;99006.81;;;2.47;100.00
49947;BME280;35839;48.662;13.300;2024-01-30T10:15:54;99003.19;;;2.51;100.00
49947;BME280;35839;48.662;13.300;2024-01-30T10:18:22;99001.50;;;2.50;100.00
49947;BME280;35839;48.662;13.300;2024-01-30T10:20:47;98995.38;;;2.53;100.00
49947;BME280;35839;48.662;13.300;2024-01-30T10:23:13;98984.06;;;2.78;100.00
49947;BME280;35839;48.662;13.300;2024-01-30T10:25:38;98998.16;;;2.91;100.00
49947;BME280;35839;48.662;13.300;2024-01-30T10:28:04;98990.19;;;2.75;100.00
49947;BME280;35839;48.662;13.300;2024-01-30T10:30:29;98996.53;;;3.10;100.00
49947;BME280;35839;48.662;13.300;2024-01-30T10:32:54;98985.13;;;3.35;100.00
49947;BME280;35839;48.662;13.300;2024-01-30T10:35:20;98976.22;;;2.79;100.00
49947;BME280;35839;48.662;13.300;2024-01-30T10:37:48;98993.84;;;3.12;100.00
49947;BME280;35839;48.662;13.300;2024-01-30T10:40:14;98985.69;;;3.01;100.00
49947;BME280;35839;48.662;13.300;2024-01-30T10:42:45;98980.78;;;3.35;100.00
49947;BME280;35839;48.662;13.300;2024-01-30T10:45:14;98977.16;;;3.19;100.00
49947;BME280;35839;48.662;13.300;2024-01-30T10:47:48;98974.59;;;3.58;100.00
49947;BME280;35839;48.662;13.300;2024-01-30T10:50:14;98970.38;;;3.37;100.00
49947;BME280;35839;48.662;13.300;2024-01-30T10:52:41;98971.09;;;3.20;100.00
49947;BME280;35839;48.662;13.300;2024-01-30T10:55:07;98966.25;;;3.52;100.00
49947;BME280;35839;48.662;13.300;2024-01-30T10:57:37;98968.09;;;3.50;100.00
49947;BME280;35839;48.662;13.300;2024-01-30T11:00:11;98960.94;;;3.75;100.00
49947;BME280;35839;48.662;13.300;2024-01-30T11:02:39;98958.19;;;3.97;100.00
49947;BME280;35839;48.662;13.300;2024-01-30T11:05:05;98921.00;;;3.79;100.00
49947;BME280;35839;48.662;13.300;2024-01-30T11:07:31;98948.09;;;3.72;100.00
49947;BME280;35839;48.662;13.300;2024-01-30T11:10:03;98940.53;;;3.68;100.00
49947;BME280;35839;48.662;13.300;2024-01-30T11:12:32;98944.41;;;3.97;100.00
49947;BME280;35839;48.662;13.300;2024-01-30T11:20:11;98942.94;;;4.47;100.00
49947;BME280;35839;48.662;13.300;2024-01-30T11:22:37;98946.38;;;4.47;100.00
49947;BME280;35839;48.662;13.300;2024-01-30T11:25:03;98935.00;;;4.50;100.00
49947;BME280;35839;48.662;13.300;2024-01-30T11:27:30;98922.03;;;4.13;100.00
49947;BME280;35839;48.662;13.300;2024-01-30T11:30:01;98928.22;;;4.47;100.00
49947;BME280;35839;48.662;13.300;2024-01-30T11:32:27;98911.69;;;4.13;100.00
49947;BME280;35839;48.662;13.300;2024-01-30T11:34:53;98927.88;;;4.36;100.00
49947;BME280;35839;48.662;13.300;2024-01-30T11:37:21;98922.06;;;4.31;100.00
49947;BME280;35839;48.662;13.300;2024-01-30T11:39:47;98905.75;;;4.29;100.00
49947;BME280;35839;48.662;13.300;2024-01-30T11:42:13;98914.63;;;4.42;100.00
49947;BME280;35839;48.662;13.300;2024-01-30T11:44:39;98909.09;;;4.31;100.00
49947;BME280;35839;48.662;13.300;2024-01-30T11:47:05;98908.75;;;4.38;100.00
49947;BME280;35839;48.662;13.300;2024-01-30T11:49:30;98912.34;;;4.53;100.00
49947;BME280;35839;48.662;13.300;2024-01-30T11:51:55;98911.97;;;4.61;100.00
49947;BME280;35839;48.662;13.300;2024-01-30T11:54:21;98905.78;;;4.98;100.00
49947;BME280;35839;48.662;13.300;2024-01-30T11:56:46;98892.38;;;4.90;100.00
49947;BME280;35839;48.662;13.300;2024-01-30T11:59:13;98895.28;;;5.01;100.00
49947;BME280;35839;48.662;13.300;2024-01-30T12:01:39;98898.41;;;4.91;100.00
49947;BME280;35839;48.662;13.300;2024-01-30T12:04:04;98890.97;;;5.00;100.00
49947;BME280;35839;48.662;13.300;2024-01-30T12:06:34;98885.78;;;5.18;100.00
49947;BME280;35839;48.662;13.300;2024-01-30T12:09:01;98886.66;;;5.34;100.00
49947;BME280;35839;48.662;13.300;2024-01-30T12:11:29;98886.91;;;5.30;100.00
49947;BME280;35839;48.662;13.300;2024-01-30T12:13:55;98880.78;;;5.31;100.00
49947;BME280;35839;48.662;13.300;2024-01-30T12:16:23;98884.84;;;5.68;100.00
49947;BME280;35839;48.662;13.300;2024-01-30T12:18:48;98879.22;;;5.76;100.00
49947;BME280;35839;48.662;13.300;2024-01-30T12:21:17;98872.22;;;5.62;100.00
49947;BME280;35839;48.662;13.300;2024-01-30T12:23:43;98875.13;;;5.56;100.00
49947;BME280;35839;48.662;13.300;2024-01-30T12:26:08;98874.84;;;5.44;100.00
49947;BME280;35839;48.662;13.300;2024-01-30T12:28:34;98875.81;;;5.75;100.00
49947;BME280;35839;48.662;13.300;2024-01-30T12:31:03;98877.84;;;5.86;100.00
49947;BME280;35839;48.662;13.300;2024-01-30T12:33:30;98867.47;;;6.02;100.00
49947;BME280;35839;48.662;13.300;2024-01-30T12:35:56;98871.28;;;6.10;100.00
49947;BME280;35839;48.662;13.300;2024-01-30T12:38:24;98845.56;;;5.90;100.00
49947;BME280;35839;48.662;13.300;2024-01-30T12:40:54;98872.19;;;5.94;100.00